createdAt,value
2017-09-04T00:00:53.933Z,14.00
2017-09-04T00:03:24.351Z,14.00
2017-09-04T00:05:55.416Z,14.00
2017-09-04T00:08:25.708Z,14.00
2017-09-04T00:10:56.410Z,14.00
2017-09-04T00:13:26.717Z,14.00
2017-09-04T00:15:57.004Z,13.90
2017-09-04T00:18:27.398Z,13.90
2017-09-04T00:20:57.614Z,13.90
2017-09-04T00:27:00.694Z,13.80
2017-09-04T00:29:31.108Z,13.80
2017-09-04T00:32:01.322Z,13.80
2017-09-04T00:34:31.620Z,13.80
2017-09-04T00:37:01.690Z,13.80
2017-09-04T00:39:32.333Z,13.80
2017-09-04T00:42:02.602Z,13.70
2017-09-04T00:44:32.814Z,13.70
2017-09-04T00:47:03.011Z,13.70
2017-09-04T00:49:33.333Z,13.70
2017-09-04T00:52:03.565Z,13.60
2017-09-04T00:54:33.923Z,13.60
2017-09-04T00:57:04.243Z,13.60
2017-09-04T00:59:34.430Z,13.50
2017-09-04T01:02:04.726Z,13.50
2017-09-04T01:04:34.995Z,13.50
2017-09-04T01:07:05.461Z,13.50
2017-09-04T01:09:35.691Z,13.50
2017-09-04T01:12:05.995Z,13.50
2017-09-04T01:14:36.483Z,13.50
2017-09-04T01:17:07.756Z,13.40
2017-09-04T01:19:38.126Z,13.40
2017-09-04T01:22:08.579Z,13.30
2017-09-04T01:24:38.843Z,13.30
2017-09-04T01:27:09.143Z,13.30
2017-09-04T01:29:39.471Z,13.30
2017-09-04T01:32:09.916Z,13.30
2017-09-04T01:34:40.197Z,13.30
2017-09-04T01:37:10.287Z,13.30
2017-09-04T01:39:40.370Z,13.30
2017-09-04T01:43:14.446Z,13.30
2017-09-04T01:45:44.525Z,13.20
2017-09-04T01:48:15.709Z,13.20
2017-09-04T01:50:46.032Z,13.20
2017-09-04T01:53:16.287Z,13.20
2017-09-04T01:55:47.426Z,13.10
2017-09-04T01:58:17.727Z,13.10
2017-09-04T02:00:48.062Z,13.10
2017-09-04T02:03:18.423Z,13.10
2017-09-04T02:05:48.636Z,13.10
2017-09-04T02:08:18.921Z,13.10
2017-09-04T02:10:50.933Z,13.00
2017-09-04T02:13:21.394Z,13.00
2017-09-04T02:15:51.722Z,13.00
2017-09-04T02:18:21.983Z,13.00
2017-09-04T02:20:52.366Z,13.00
2017-09-04T02:23:22.631Z,13.00
2017-09-04T02:25:52.861Z,12.90
2017-09-04T02:28:23.171Z,12.90
2017-09-04T02:30:53.428Z,12.90
2017-09-04T02:33:23.715Z,12.90
2017-09-04T02:35:53.814Z,12.90
2017-09-04T02:38:24.221Z,12.90
2017-09-04T02:40:54.441Z,12.90
2017-09-04T02:43:25.824Z,12.90
2017-09-04T02:45:56.144Z,12.80
2017-09-04T02:48:26.330Z,12.80
2017-09-04T02:50:56.480Z,12.80
2017-09-04T02:53:26.794Z,12.80
2017-09-04T02:55:56.908Z,12.80
2017-09-04T02:58:27.039Z,12.80
2017-09-04T03:00:57.282Z,12.80
2017-09-04T03:03:27.616Z,12.70
2017-09-04T03:05:57.610Z,12.70
2017-09-04T03:08:27.720Z,12.70
2017-09-04T03:10:58.242Z,12.70
2017-09-04T03:13:28.715Z,12.70
2017-09-04T03:15:59.021Z,12.60
2017-09-04T03:18:29.350Z,12.60
2017-09-04T03:20:59.542Z,12.60
2017-09-04T03:23:29.845Z,12.50
2017-09-04T03:26:00.189Z,12.50
2017-09-04T03:28:30.607Z,12.60
2017-09-04T03:31:01.067Z,12.50
2017-09-04T03:33:31.385Z,12.50
2017-09-04T03:36:01.636Z,12.50
2017-09-04T03:38:31.918Z,12.40
2017-09-04T03:41:02.848Z,12.40
2017-09-04T03:43:33.482Z,12.40
2017-09-04T03:46:03.851Z,12.30
2017-09-04T03:48:34.173Z,12.40
2017-09-04T03:51:04.647Z,12.40
2017-09-04T03:53:35.179Z,12.30
2017-09-04T03:56:05.527Z,12.30
2017-09-04T03:58:36.281Z,12.30
2017-09-04T04:01:06.758Z,12.30
2017-09-04T04:03:37.851Z,12.30
2017-09-04T04:06:08.221Z,12.30
2017-09-04T04:08:38.714Z,12.20
2017-09-04T04:11:09.041Z,12.20
2017-09-04T04:13:39.231Z,12.20
2017-09-04T04:16:09.676Z,12.20
2017-09-04T04:18:39.903Z,12.20
2017-09-04T04:21:10.865Z,12.20
2017-09-04T04:23:41.124Z,12.10
2017-09-04T04:26:11.758Z,12.10
2017-09-04T04:28:42.112Z,12.10
2017-09-04T04:31:12.400Z,12.10
2017-09-04T04:33:42.696Z,12.10
2017-09-04T04:36:12.824Z,12.00
2017-09-04T04:38:43.083Z,12.00
2017-09-04T04:41:13.410Z,12.00
2017-09-04T04:43:44.019Z,12.00
2017-09-04T04:46:14.115Z,12.00
2017-09-04T04:48:44.401Z,12.00
2017-09-04T04:51:14.570Z,12.00
2017-09-04T04:53:44.594Z,12.00
2017-09-04T04:56:14.844Z,12.00
2017-09-04T04:58:44.957Z,12.00
2017-09-04T05:01:16.213Z,12.00
2017-09-04T05:03:46.530Z,12.00
2017-09-04T05:06:17.613Z,11.90
2017-09-04T05:08:47.778Z,11.90
2017-09-04T05:11:18.125Z,11.90
2017-09-04T05:13:48.302Z,11.90
2017-09-04T05:16:28.501Z,11.90
2017-09-04T05:19:13.059Z,11.80
2017-09-04T05:21:45.263Z,11.70
2017-09-04T05:24:15.591Z,11.70
2017-09-04T05:26:45.747Z,11.80
2017-09-04T05:29:16.185Z,11.70
2017-09-04T05:31:46.413Z,11.70
2017-09-04T05:34:16.879Z,11.80
2017-09-04T05:36:47.043Z,11.80
2017-09-04T05:39:17.366Z,11.80
2017-09-04T05:41:47.509Z,11.70
2017-09-04T05:44:17.818Z,11.70
2017-09-04T05:46:48.140Z,11.70
2017-09-04T05:49:18.482Z,11.70
2017-09-04T05:51:48.804Z,11.70
2017-09-04T05:54:19.111Z,11.70
2017-09-04T05:56:49.574Z,11.70
2017-09-04T05:59:19.890Z,11.80
2017-09-04T06:01:50.645Z,11.80
2017-09-04T06:04:21.029Z,11.80
2017-09-04T06:06:51.442Z,11.80
2017-09-04T06:09:21.891Z,11.80
2017-09-04T06:11:52.177Z,11.70
2017-09-04T06:14:22.522Z,11.70
2017-09-04T06:16:52.906Z,11.70
2017-09-04T06:19:23.186Z,11.70
2017-09-04T06:21:53.618Z,11.80
2017-09-04T06:24:24.610Z,11.70
2017-09-04T06:26:54.767Z,11.70
2017-09-04T06:29:25.118Z,11.80
2017-09-04T06:31:55.990Z,11.80
2017-09-04T06:34:26.290Z,11.80
2017-09-04T06:36:56.843Z,11.80
2017-09-04T06:39:27.947Z,11.80
2017-09-04T06:41:58.150Z,11.80
2017-09-04T06:44:28.516Z,11.80
2017-09-04T06:46:58.744Z,11.90
2017-09-04T06:49:29.165Z,11.90
2017-09-04T06:51:59.402Z,11.90
2017-09-04T06:54:29.763Z,11.90
2017-09-04T06:57:00.204Z,11.90
2017-09-04T06:59:31.673Z,12.00
2017-09-04T07:02:02.059Z,12.00
2017-09-04T07:04:32.431Z,12.10
2017-09-04T07:07:02.689Z,12.20
2017-09-04T07:09:32.924Z,12.20
2017-09-04T07:12:03.575Z,12.30
2017-09-04T07:14:34.701Z,12.40
2017-09-04T07:17:09.739Z,12.50
2017-09-04T07:19:40.702Z,12.50
2017-09-04T07:22:10.901Z,12.50
2017-09-04T07:24:42.085Z,12.60
2017-09-04T07:27:13.248Z,12.60
2017-09-04T07:29:43.392Z,12.60
2017-09-04T07:32:14.547Z,12.60
2017-09-04T07:34:45.738Z,12.60
2017-09-04T07:37:16.124Z,12.60
2017-09-04T07:39:46.530Z,12.60
2017-09-04T07:42:16.720Z,12.60
2017-09-04T07:44:47.042Z,12.60
2017-09-04T07:47:17.342Z,12.70
2017-09-04T07:49:47.566Z,12.70
2017-09-04T07:52:17.759Z,12.80
2017-09-04T07:54:48.902Z,12.80
2017-09-04T07:57:19.839Z,12.90
2017-09-04T07:59:50.173Z,12.90
2017-09-04T08:02:20.453Z,12.90
2017-09-04T08:04:51.466Z,13.00
2017-09-04T08:07:21.701Z,13.00
2017-09-04T08:09:52.050Z,13.10
2017-09-04T08:12:22.491Z,13.20
2017-09-04T08:14:52.800Z,13.30
2017-09-04T08:17:23.121Z,13.40
2017-09-04T08:19:53.316Z,13.50
2017-09-04T08:22:23.712Z,13.60
2017-09-04T08:24:54.155Z,13.60
2017-09-04T08:27:24.377Z,13.70
2017-09-04T08:29:54.514Z,13.80
2017-09-04T08:32:24.781Z,13.90
2017-09-04T08:34:55.810Z,14.10
2017-09-04T08:37:26.489Z,14.00
2017-09-04T08:39:56.543Z,14.10
2017-09-04T08:42:27.694Z,14.30
2017-09-04T08:44:58.712Z,14.30
2017-09-04T08:47:28.963Z,14.40
2017-09-04T08:49:59.344Z,14.50
2017-09-04T08:52:29.522Z,14.60
2017-09-04T08:54:59.854Z,14.70
2017-09-04T08:57:30.277Z,14.70
2017-09-04T09:00:00.860Z,14.80
2017-09-04T09:02:31.344Z,14.80
2017-09-04T09:05:01.529Z,14.90
2017-09-04T09:07:32.033Z,15.00
2017-09-04T09:10:02.632Z,15.00
2017-09-04T09:12:33.099Z,15.10
2017-09-04T09:15:03.677Z,15.20
2017-09-04T09:17:35.136Z,15.30
2017-09-04T09:20:05.442Z,15.30
2017-09-04T09:22:35.974Z,15.40
2017-09-04T09:25:06.773Z,15.40
2017-09-04T09:27:37.105Z,15.60
2017-09-04T09:30:07.474Z,15.60
2017-09-04T09:32:38.039Z,15.60
2017-09-04T09:35:08.508Z,15.60
2017-09-04T09:37:38.966Z,15.70
2017-09-04T09:40:09.443Z,15.80
2017-09-04T09:42:39.806Z,15.90
2017-09-04T09:45:10.090Z,15.90
2017-09-04T09:47:40.427Z,16.00
2017-09-04T09:50:10.783Z,16.10
2017-09-04T09:52:41.231Z,16.10
2017-09-04T09:55:11.542Z,16.20
2017-09-04T09:57:41.781Z,16.20
2017-09-04T10:00:12.014Z,16.30
2017-09-04T10:02:42.430Z,16.40
2017-09-04T10:05:12.534Z,16.50
2017-09-04T10:07:42.688Z,16.50
2017-09-04T10:10:13.118Z,16.50
2017-09-04T10:12:43.561Z,16.60
2017-09-04T10:15:14.278Z,16.70
2017-09-04T10:17:44.841Z,16.70
2017-09-04T10:20:15.379Z,16.80
2017-09-04T10:22:45.573Z,16.90
2017-09-04T10:25:16.714Z,16.90
2017-09-04T10:27:47.130Z,16.80
2017-09-04T10:30:17.705Z,16.90
2017-09-04T10:32:48.192Z,16.90
2017-09-04T10:35:18.734Z,17.00
2017-09-04T10:37:49.135Z,17.10
2017-09-04T10:40:19.493Z,17.20
2017-09-04T10:42:49.901Z,17.30
2017-09-04T10:45:20.828Z,17.30
2017-09-04T10:47:51.369Z,17.40
2017-09-04T10:50:22.437Z,17.40
2017-09-04T10:52:52.731Z,17.50
2017-09-04T10:55:23.084Z,17.50
2017-09-04T10:57:53.918Z,17.60
2017-09-04T11:00:24.308Z,17.60
2017-09-04T11:02:54.566Z,17.70
2017-09-04T11:05:25.059Z,17.70
2017-09-04T11:07:55.540Z,17.70
2017-09-04T11:10:25.968Z,17.80
2017-09-04T11:12:56.336Z,17.80
2017-09-04T11:15:26.718Z,17.90
2017-09-04T11:17:57.944Z,17.90
2017-09-04T11:20:28.314Z,17.90
2017-09-04T11:22:58.576Z,17.90
2017-09-04T11:25:29.096Z,18.00
2017-09-04T11:27:59.650Z,18.00
2017-09-04T11:30:30.223Z,18.10
2017-09-04T11:33:00.603Z,18.20
2017-09-04T11:35:30.828Z,18.20
2017-09-04T11:38:01.153Z,18.20
2017-09-04T11:40:32.139Z,18.20
2017-09-04T11:43:03.367Z,18.30
2017-09-04T11:45:33.661Z,18.40
2017-09-04T11:48:03.923Z,18.40
2017-09-04T11:50:34.374Z,18.40
2017-09-04T11:53:04.928Z,18.50
2017-09-04T11:55:35.248Z,18.50
2017-09-04T11:58:05.701Z,18.60
2017-09-04T12:00:35.977Z,18.60
2017-09-04T12:03:06.507Z,18.60
2017-09-04T12:05:36.825Z,18.80
2017-09-04T12:08:07.084Z,20.00
2017-09-04T12:10:37.842Z,20.50
2017-09-04T12:13:08.126Z,20.70
2017-09-04T12:15:39.298Z,21.10
2017-09-04T12:18:09.748Z,21.40
2017-09-04T12:20:40.170Z,21.50
2017-09-04T12:23:10.574Z,21.60
2017-09-04T12:25:40.990Z,21.70
2017-09-04T12:28:11.579Z,21.70
2017-09-04T12:30:41.915Z,21.70
2017-09-04T12:33:12.226Z,21.70
2017-09-04T12:35:42.886Z,21.70
2017-09-04T12:38:13.382Z,21.70
2017-09-04T12:40:43.832Z,21.70
2017-09-04T12:43:14.234Z,21.70
2017-09-04T12:45:44.744Z,21.70
2017-09-04T12:48:15.318Z,21.70
2017-09-04T12:50:45.801Z,21.70
2017-09-04T12:53:16.478Z,21.80
2017-09-04T12:55:47.250Z,21.80
2017-09-04T12:58:17.922Z,21.80
2017-09-04T13:00:48.750Z,21.80
2017-09-04T13:03:19.231Z,21.80
2017-09-04T13:05:49.367Z,21.80
2017-09-04T13:08:20.382Z,21.80
2017-09-04T13:10:55.011Z,21.80
2017-09-04T13:13:25.541Z,21.80
2017-09-04T13:16:00.159Z,21.80
2017-09-04T13:18:34.982Z,21.80
2017-09-04T13:21:16.371Z,21.80
2017-09-04T13:23:50.992Z,21.80
2017-09-04T13:26:25.832Z,21.80
2017-09-04T13:29:00.446Z,21.80
2017-09-04T13:31:35.076Z,21.80
2017-09-04T13:34:10.318Z,21.80
2017-09-04T13:36:45.147Z,21.80
2017-09-04T13:39:19.771Z,21.80
2017-09-04T13:41:54.801Z,21.80
2017-09-04T13:44:30.751Z,21.80
2017-09-04T13:47:05.490Z,21.80
2017-09-04T13:49:36.018Z,21.70
2017-09-04T13:52:07.416Z,21.70
2017-09-04T13:54:41.990Z,21.70
2017-09-04T13:57:13.702Z,21.70
2017-09-04T13:59:44.129Z,21.70
2017-09-04T14:02:16.209Z,21.70
2017-09-04T14:04:47.042Z,21.70
2017-09-04T14:07:18.208Z,21.70
2017-09-04T14:09:48.831Z,21.70
2017-09-04T14:12:19.476Z,21.70
2017-09-04T14:14:49.899Z,21.70
2017-09-04T14:17:20.502Z,21.60
2017-09-04T14:19:51.648Z,21.60
2017-09-04T14:22:22.011Z,21.60
2017-09-04T14:24:52.520Z,21.60
2017-09-04T14:27:22.955Z,21.60
2017-09-04T14:29:53.362Z,21.60
2017-09-04T14:32:24.626Z,21.60
2017-09-04T14:34:55.136Z,21.50
2017-09-04T14:37:25.728Z,21.50
2017-09-04T14:39:56.037Z,21.40
2017-09-04T14:42:28.111Z,21.40
2017-09-04T14:44:58.715Z,21.40
2017-09-04T14:47:29.268Z,21.40
2017-09-04T14:49:59.680Z,21.40
2017-09-04T14:52:30.262Z,21.40
2017-09-04T14:55:00.740Z,21.40
2017-09-04T14:57:31.298Z,21.40
2017-09-04T15:00:02.127Z,21.40
2017-09-04T15:02:32.749Z,21.30
2017-09-04T15:05:03.649Z,21.30
2017-09-04T15:07:34.392Z,21.20
2017-09-04T15:10:04.755Z,21.20
2017-09-04T15:12:35.118Z,21.20
2017-09-04T15:15:05.638Z,21.20
2017-09-04T15:17:36.133Z,21.10
2017-09-04T15:20:06.610Z,21.10
2017-09-04T15:22:37.869Z,21.00
2017-09-04T15:25:08.816Z,21.00
2017-09-04T15:27:40.715Z,21.00
2017-09-04T15:30:11.327Z,21.00
2017-09-04T15:32:41.772Z,20.90
2017-09-04T15:35:12.274Z,20.90
2017-09-04T15:37:43.540Z,20.90
2017-09-04T15:40:14.056Z,20.80
2017-09-04T15:42:44.832Z,20.80
2017-09-04T15:45:15.699Z,20.80
2017-09-04T15:47:46.742Z,20.80
2017-09-04T15:50:17.153Z,20.70
2017-09-04T15:52:47.713Z,20.70
2017-09-04T15:55:19.054Z,20.70
2017-09-04T15:57:49.660Z,20.60
2017-09-04T16:00:21.099Z,20.60
2017-09-04T16:02:52.442Z,20.60
2017-09-04T16:05:22.966Z,20.60
2017-09-04T16:07:53.518Z,20.60
2017-09-04T16:10:24.124Z,20.50
2017-09-04T16:12:54.671Z,20.40
2017-09-04T16:15:26.275Z,20.40
2017-09-04T16:17:56.880Z,20.40
2017-09-04T16:20:27.371Z,20.40
2017-09-04T16:22:57.836Z,20.30
2017-09-04T16:25:28.217Z,20.30
2017-09-04T16:27:59.747Z,20.30
2017-09-04T16:30:29.960Z,20.20
2017-09-04T16:33:00.425Z,20.20
2017-09-04T16:35:31.590Z,20.20
2017-09-04T16:38:02.199Z,20.20
2017-09-04T16:40:32.615Z,20.10
2017-09-04T16:43:03.242Z,20.10
2017-09-04T16:45:33.719Z,20.00
2017-09-04T16:48:04.184Z,20.00
2017-09-04T16:50:34.672Z,20.00
2017-09-04T16:53:06.410Z,20.00
2017-09-04T16:55:37.810Z,19.90
2017-09-04T16:58:08.482Z,19.90
2017-09-04T17:00:38.806Z,19.90
2017-09-04T17:03:09.190Z,19.90
2017-09-04T17:05:39.559Z,19.80
2017-09-04T17:08:10.096Z,19.80
2017-09-04T17:10:40.973Z,19.80
2017-09-04T17:13:11.630Z,19.70
2017-09-04T17:15:42.248Z,19.70
2017-09-04T17:18:13.186Z,19.70
2017-09-04T17:20:43.574Z,19.70
2017-09-04T17:23:13.988Z,19.70
2017-09-04T17:25:44.400Z,19.60
2017-09-04T17:28:15.147Z,19.60
2017-09-04T17:30:45.569Z,19.60
2017-09-04T17:33:16.906Z,19.60
2017-09-04T17:35:47.272Z,19.50
2017-09-04T17:38:18.461Z,19.50
2017-09-04T17:40:49.087Z,19.50
2017-09-04T17:43:19.629Z,19.50
2017-09-04T17:45:50.825Z,19.40
2017-09-04T17:48:21.159Z,19.40
2017-09-04T17:50:51.638Z,19.40
2017-09-04T17:53:22.021Z,19.40
2017-09-04T17:55:52.415Z,19.30
2017-09-04T17:58:22.978Z,19.30
2017-09-04T18:00:53.961Z,19.30
2017-09-04T18:03:24.933Z,19.20
2017-09-04T18:05:55.394Z,19.20
2017-09-04T18:08:26.914Z,19.10
2017-09-04T18:10:58.477Z,19.10
2017-09-04T18:13:29.532Z,19.10
2017-09-04T18:16:00.108Z,19.10
2017-09-04T18:18:30.652Z,19.10
2017-09-04T18:21:00.977Z,19.00
2017-09-04T18:23:31.409Z,19.00
2017-09-04T18:26:01.666Z,19.00
2017-09-04T18:28:32.738Z,19.00
2017-09-04T18:31:03.211Z,18.90
2017-09-04T18:33:33.804Z,18.90
2017-09-04T18:36:04.174Z,18.90
2017-09-04T18:38:34.612Z,18.80
2017-09-04T18:41:05.634Z,18.80
2017-09-04T18:43:35.944Z,18.70
2017-09-04T18:46:06.429Z,18.70
2017-09-04T18:48:36.858Z,18.70
2017-09-04T18:51:07.343Z,18.70
2017-09-04T18:53:37.895Z,18.60
2017-09-04T18:56:09.834Z,18.50
2017-09-04T18:58:40.360Z,18.50
2017-09-04T19:01:10.734Z,17.40
2017-09-04T19:03:41.178Z,17.00
2017-09-04T19:06:11.866Z,17.40
2017-09-04T19:08:42.584Z,17.70
2017-09-04T19:11:12.811Z,17.90
2017-09-04T19:13:43.121Z,17.90
2017-09-04T19:16:13.610Z,18.00
2017-09-04T19:18:44.099Z,18.00
2017-09-04T19:21:14.700Z,18.00
2017-09-04T19:23:45.223Z,18.00
2017-09-04T19:26:15.738Z,18.00
2017-09-04T19:28:46.960Z,17.90
2017-09-04T19:31:18.216Z,17.90
2017-09-04T19:33:50.513Z,17.90
2017-09-04T19:36:20.863Z,17.90
2017-09-04T19:38:51.599Z,17.90
2017-09-04T19:41:21.760Z,17.80
2017-09-04T19:43:52.210Z,17.80
2017-09-04T19:46:22.572Z,17.80
2017-09-04T19:48:53.578Z,17.80
2017-09-04T19:51:24.059Z,17.70
2017-09-04T19:53:54.514Z,17.70
2017-09-04T19:56:26.124Z,17.70
2017-09-04T19:58:56.588Z,17.70
2017-09-04T20:01:27.925Z,17.60
2017-09-04T20:03:58.757Z,17.60
2017-09-04T20:06:30.081Z,17.60
2017-09-04T20:09:01.366Z,17.60
2017-09-04T20:11:31.764Z,17.50
2017-09-04T20:14:02.993Z,17.50
2017-09-04T20:16:33.256Z,17.50
2017-09-04T20:19:03.864Z,17.40
2017-09-04T20:21:35.133Z,17.40
2017-09-04T20:24:05.885Z,17.40
2017-09-04T20:26:36.773Z,17.40
2017-09-04T20:29:08.138Z,17.30
2017-09-04T20:31:38.693Z,17.30
2017-09-04T20:34:09.977Z,17.30
2017-09-04T20:36:40.518Z,17.30
2017-09-04T20:39:11.152Z,17.20
2017-09-04T20:41:41.479Z,17.20
2017-09-04T20:44:11.678Z,17.20
2017-09-04T20:46:41.841Z,17.10
2017-09-04T20:49:13.099Z,17.10
2017-09-04T20:51:43.377Z,17.00
2017-09-04T20:54:15.460Z,17.00
2017-09-04T20:56:45.835Z,17.00
2017-09-04T20:59:16.319Z,17.00
2017-09-04T21:01:46.629Z,17.00
2017-09-04T21:04:17.001Z,16.90
2017-09-04T21:06:47.477Z,16.90
2017-09-04T21:09:17.947Z,16.90
2017-09-04T21:11:48.878Z,16.80
2017-09-04T21:14:19.523Z,16.80
2017-09-04T21:16:50.025Z,16.80
2017-09-04T21:19:20.506Z,16.70
2017-09-04T21:21:51.129Z,16.70
2017-09-04T21:24:21.516Z,16.70
2017-09-04T21:26:52.022Z,16.70
2017-09-04T21:29:22.497Z,16.60
2017-09-04T21:31:52.973Z,16.60
2017-09-04T21:34:23.092Z,16.60
2017-09-04T21:36:53.435Z,16.60
2017-09-04T21:39:23.783Z,16.50
2017-09-04T21:41:54.089Z,16.50
2017-09-04T21:44:24.521Z,16.50
2017-09-04T21:46:54.751Z,16.40
2017-09-04T21:49:25.227Z,16.40
2017-09-04T21:51:55.502Z,16.40
2017-09-04T21:54:25.788Z,16.40
2017-09-04T21:56:56.260Z,16.30
2017-09-04T21:59:26.616Z,16.30
2017-09-04T22:01:56.938Z,16.30
2017-09-04T22:04:27.232Z,16.30
2017-09-04T22:06:57.711Z,16.30
2017-09-04T22:09:27.889Z,16.20
2017-09-04T22:11:58.315Z,16.20
2017-09-04T22:14:28.465Z,16.20
2017-09-04T22:16:58.679Z,16.10
2017-09-04T22:19:29.081Z,16.10
2017-09-04T22:22:01.034Z,16.00
2017-09-04T22:24:31.463Z,16.00
2017-09-04T22:27:01.956Z,16.00
2017-09-04T22:29:32.159Z,16.00
2017-09-04T22:32:02.529Z,16.00
2017-09-04T22:34:32.921Z,15.90
2017-09-04T22:37:03.390Z,15.90
2017-09-04T22:39:33.607Z,15.90
2017-09-04T22:42:35.149Z,15.90
2017-09-04T22:45:06.243Z,15.90
2017-09-04T22:47:36.644Z,15.80
2017-09-04T22:50:06.915Z,15.80
2017-09-04T22:52:38.059Z,15.70
2017-09-04T22:55:08.375Z,15.70
2017-09-04T22:57:38.701Z,15.70
2017-09-04T23:00:09.287Z,15.60
2017-09-04T23:02:39.953Z,15.60
2017-09-04T23:05:10.245Z,15.60
2017-09-04T23:07:40.597Z,15.60
2017-09-04T23:10:11.093Z,15.60
2017-09-04T23:12:41.347Z,15.50
2017-09-04T23:15:11.710Z,15.50
2017-09-04T23:17:42.125Z,15.50
2017-09-04T23:20:12.446Z,15.50
2017-09-04T23:22:43.041Z,15.50
2017-09-04T23:25:13.403Z,15.40
2017-09-04T23:27:44.950Z,15.40
2017-09-04T23:30:15.189Z,15.40
2017-09-04T23:32:45.502Z,15.30
2017-09-04T23:35:15.913Z,15.30
2017-09-04T23:37:47.219Z,15.30
2017-09-04T23:40:18.221Z,15.30
2017-09-04T23:42:48.567Z,15.30
2017-09-04T23:45:18.803Z,15.30
2017-09-04T23:47:49.200Z,15.20
2017-09-04T23:50:19.486Z,15.20
2017-09-04T23:52:49.812Z,15.20
2017-09-04T23:55:20.166Z,15.20
2017-09-04T23:57:50.422Z,15.20
